createdAt,value
2018-11-05T00:00:29.137Z,10.14
2018-11-05T00:01:29.133Z,10.10
2018-11-05T00:02:29.127Z,10.15
2018-11-05T00:03:29.141Z,10.18
2018-11-05T00:04:29.153Z,10.19
2018-11-05T00:05:29.126Z,10.04
2018-11-05T00:06:29.118Z,10.14
2018-11-05T00:07:29.118Z,10.21
2018-11-05T00:08:29.114Z,10.18
2018-11-05T00:09:29.138Z,10.19
2018-11-05T00:10:29.103Z,10.14
2018-11-05T00:11:29.106Z,10.15
2018-11-05T00:12:29.102Z,10.17
2018-11-05T00:13:29.098Z,10.01
2018-11-05T00:14:29.126Z,10.06
2018-11-05T00:15:29.094Z,10.09
2018-11-05T00:16:29.090Z,10.19
2018-11-05T00:17:29.086Z,10.14
2018-11-05T00:18:29.079Z,10.14
2018-11-05T00:19:29.109Z,10.15
2018-11-05T00:20:29.079Z,10.18
2018-11-05T00:21:29.075Z,10.18
2018-11-05T00:22:29.075Z,10.12
2018-11-05T00:23:29.098Z,10.19
2018-11-05T00:24:29.066Z,10.14
2018-11-05T00:25:29.071Z,10.12
2018-11-05T00:26:29.059Z,10.17
2018-11-05T00:27:29.067Z,10.18
2018-11-05T00:28:29.083Z,10.21
2018-11-05T00:29:29.057Z,10.18
2018-11-05T00:30:29.051Z,10.15
2018-11-05T00:31:29.048Z,10.17
2018-11-05T00:32:29.044Z,10.14
2018-11-05T00:33:29.073Z,10.18
2018-11-05T00:34:29.040Z,10.18
2018-11-05T00:35:29.040Z,10.21
2018-11-05T00:36:29.031Z,10.19
2018-11-05T00:37:29.032Z,10.17
2018-11-05T00:38:29.054Z,10.19
2018-11-05T00:39:29.024Z,10.19
2018-11-05T00:40:29.020Z,10.09
2018-11-05T00:41:29.020Z,10.07
2018-11-05T00:42:29.022Z,10.09
2018-11-05T00:43:29.040Z,10.10
2018-11-05T00:44:29.011Z,10.00
2018-11-05T00:45:29.014Z,10.00
2018-11-05T00:46:29.004Z,9.94
2018-11-05T00:47:29.000Z,9.99
2018-11-05T00:48:29.032Z,9.94
2018-11-05T00:49:28.997Z,9.97
2018-11-05T00:50:28.988Z,9.96
2018-11-05T00:51:28.985Z,9.91
2018-11-05T00:52:28.988Z,9.82
2018-11-05T00:53:29.012Z,9.93
2018-11-05T00:54:28.977Z,9.82
2018-11-05T00:55:28.984Z,9.78
2018-11-05T00:56:28.976Z,9.81
2018-11-05T00:57:29.007Z,9.78
2018-11-05T00:58:29.261Z,9.81
2018-11-05T00:59:28.966Z,9.85
2018-11-05T01:00:28.966Z,9.83
2018-11-05T01:01:28.961Z,9.82
2018-11-05T01:02:28.954Z,9.79
2018-11-05T01:03:28.979Z,9.78
2018-11-05T01:04:28.981Z,9.88
2018-11-05T01:05:28.948Z,9.83
2018-11-05T01:06:28.951Z,9.81
2018-11-05T01:07:28.942Z,9.81
2018-11-05T01:08:28.942Z,9.81
2018-11-05T01:09:28.978Z,9.82
2018-11-05T01:10:28.933Z,9.91
2018-11-05T01:11:28.932Z,9.82
2018-11-05T01:12:28.927Z,9.85
2018-11-05T01:13:28.926Z,9.82
2018-11-05T01:14:28.948Z,9.86
2018-11-05T01:15:28.918Z,9.76
2018-11-05T01:16:28.916Z,9.83
2018-11-05T01:17:28.919Z,9.78
2018-11-05T01:18:28.911Z,9.79
2018-11-05T01:19:28.934Z,9.76
2018-11-05T01:20:28.903Z,9.79
2018-11-05T01:21:28.899Z,9.82
2018-11-05T01:22:28.929Z,9.83
2018-11-05T01:23:28.895Z,9.78
2018-11-05T01:24:28.891Z,9.82
2018-11-05T01:25:28.917Z,9.78
2018-11-05T01:26:28.883Z,9.75
2018-11-05T01:27:28.883Z,9.78
2018-11-05T01:28:28.879Z,10.00
2018-11-05T01:29:28.873Z,9.93
2018-11-05T01:30:28.901Z,9.99
2018-11-05T01:31:28.867Z,9.85
2018-11-05T01:32:28.867Z,9.85
2018-11-05T01:33:28.866Z,9.96
2018-11-05T01:34:28.863Z,9.85
2018-11-05T01:35:28.887Z,9.85
2018-11-05T01:36:28.855Z,9.89
2018-11-05T01:37:28.852Z,9.89
2018-11-05T01:38:28.850Z,9.97
2018-11-05T01:39:28.844Z,9.93
2018-11-05T01:40:28.866Z,9.97
2018-11-05T01:41:28.846Z,9.86
2018-11-05T01:42:28.836Z,9.89
2018-11-05T01:43:28.831Z,9.81
2018-11-05T01:44:28.828Z,9.96
2018-11-05T01:45:28.856Z,9.83
2018-11-05T01:46:28.828Z,9.83
2018-11-05T01:47:28.823Z,9.76
2018-11-05T01:48:28.816Z,9.78
2018-11-05T01:49:28.821Z,9.83
2018-11-05T01:50:28.840Z,9.78
2018-11-05T01:51:28.808Z,9.76
2018-11-05T01:52:28.804Z,9.81
2018-11-05T01:53:28.804Z,9.81
2018-11-05T01:54:28.800Z,9.66
2018-11-05T01:55:28.821Z,9.76
2018-11-05T01:56:28.789Z,9.68
2018-11-05T01:57:28.793Z,9.68
2018-11-05T01:58:28.784Z,9.61
2018-11-05T01:59:28.789Z,9.66
2018-11-05T02:00:28.811Z,9.66
2018-11-05T02:01:28.780Z,9.50
2018-11-05T02:02:28.773Z,9.53
2018-11-05T02:03:28.783Z,9.49
2018-11-05T02:04:28.768Z,9.56
2018-11-05T02:05:28.795Z,9.45
2018-11-05T02:06:28.765Z,9.46
2018-11-05T02:07:28.761Z,9.56
2018-11-05T02:08:28.761Z,9.46
2018-11-05T02:09:28.753Z,9.38
2018-11-05T02:10:28.871Z,9.38
2018-11-05T02:11:28.745Z,9.35
2018-11-05T02:12:28.748Z,9.39
2018-11-05T02:13:28.859Z,9.45
2018-11-05T02:14:28.737Z,9.30
2018-11-05T02:15:28.758Z,9.32
2018-11-05T02:16:28.732Z,9.24
2018-11-05T02:17:28.724Z,9.32
2018-11-05T02:18:28.733Z,9.28
2018-11-05T02:19:28.721Z,9.28
2018-11-05T02:20:28.745Z,9.23
2018-11-05T02:21:28.717Z,9.15
2018-11-05T02:22:28.709Z,9.21
2018-11-05T02:23:28.705Z,9.09
2018-11-05T02:24:28.701Z,9.12
2018-11-05T02:25:28.730Z,9.06
2018-11-05T02:26:28.697Z,9.06
2018-11-05T02:27:28.694Z,9.06
2018-11-05T02:28:28.697Z,9.01
2018-11-05T02:29:28.686Z,9.05
2018-11-05T02:30:28.721Z,9.04
2018-11-05T02:31:28.679Z,8.94
2018-11-05T02:32:28.678Z,8.94
2018-11-05T02:33:28.671Z,8.93
2018-11-05T02:34:28.672Z,8.87
2018-11-05T02:35:28.703Z,8.83
2018-11-05T02:36:28.684Z,8.81
2018-11-05T02:37:28.659Z,8.76
2018-11-05T02:38:28.651Z,8.73
2018-11-05T02:39:28.655Z,8.81
2018-11-05T02:40:28.679Z,8.76
2018-11-05T02:41:28.643Z,8.71
2018-11-05T02:42:28.642Z,8.72
2018-11-05T02:43:28.639Z,8.68
2018-11-05T02:44:28.637Z,8.72
2018-11-05T02:45:28.659Z,8.73
2018-11-05T02:46:28.627Z,8.63
2018-11-05T02:47:28.626Z,8.60
2018-11-05T02:48:28.665Z,8.54
2018-11-05T02:49:28.621Z,8.53
2018-11-05T02:50:28.647Z,8.51
2018-11-05T02:51:28.613Z,8.40
2018-11-05T02:52:28.613Z,8.47
2018-11-05T02:53:28.604Z,8.33
2018-11-05T02:54:28.599Z,8.25
2018-11-05T02:55:28.632Z,8.45
2018-11-05T02:56:28.589Z,8.42
2018-11-05T02:57:28.604Z,8.48
2018-11-05T02:58:28.584Z,8.51
2018-11-05T02:59:28.583Z,8.39
2018-11-05T03:00:28.604Z,8.45
2018-11-05T03:01:28.571Z,8.47
2018-11-05T03:02:28.574Z,8.39
2018-11-05T03:03:28.571Z,8.28
2018-11-05T03:04:28.560Z,8.32
2018-11-05T03:05:28.584Z,8.25
2018-11-05T03:06:28.549Z,8.22
2018-11-05T03:07:28.549Z,8.15
2018-11-05T03:08:28.545Z,8.04
2018-11-05T03:09:28.542Z,8.08
2018-11-05T03:10:28.565Z,8.14
2018-11-05T03:11:28.533Z,8.21
2018-11-05T03:12:28.536Z,8.22
2018-11-05T03:13:28.529Z,8.22
2018-11-05T03:14:28.525Z,8.17
2018-11-05T03:15:28.555Z,8.11
2018-11-05T03:16:28.517Z,8.14
2018-11-05T03:17:28.510Z,8.04
2018-11-05T03:18:28.510Z,8.04
2018-11-05T03:19:28.503Z,7.97
2018-11-05T03:20:28.536Z,8.03
2018-11-05T03:21:28.507Z,8.02
2018-11-05T03:22:28.492Z,8.03
2018-11-05T03:23:28.484Z,8.02
2018-11-05T03:24:28.479Z,7.89
2018-11-05T03:25:28.516Z,8.00
2018-11-05T03:26:28.475Z,8.02
2018-11-05T03:27:28.472Z,7.99
2018-11-05T03:28:28.463Z,7.92
2018-11-05T03:29:28.491Z,8.08
2018-11-05T03:30:28.460Z,7.92
2018-11-05T03:31:28.456Z,7.90
2018-11-05T03:32:28.453Z,7.92
2018-11-05T03:33:28.445Z,7.85
2018-11-05T03:34:28.473Z,7.97
2018-11-05T03:35:28.453Z,7.90
2018-11-05T03:36:28.432Z,7.89
2018-11-05T03:37:28.429Z,7.85
2018-11-05T03:38:28.424Z,7.93
2018-11-05T03:39:28.454Z,7.89
2018-11-05T03:40:28.417Z,7.89
2018-11-05T03:41:28.410Z,7.85
2018-11-05T03:42:28.409Z,7.85
2018-11-05T03:43:28.403Z,7.81
2018-11-05T03:44:28.430Z,7.87
2018-11-05T03:45:28.393Z,7.77
2018-11-05T03:46:28.392Z,7.89
2018-11-05T03:47:28.388Z,7.93
2018-11-05T03:48:28.385Z,7.87
2018-11-05T03:49:28.413Z,7.94
2018-11-05T03:50:28.374Z,7.85
2018-11-05T03:51:28.372Z,7.84
2018-11-05T03:52:28.370Z,7.82
2018-11-05T03:53:28.365Z,7.87
2018-11-05T03:54:28.384Z,7.82
2018-11-05T03:55:30.417Z,7.78
2018-11-05T03:56:28.374Z,7.79
2018-11-05T03:57:28.362Z,7.66
2018-11-05T03:58:28.372Z,7.78
2018-11-05T03:59:28.336Z,7.66
2018-11-05T04:00:28.360Z,7.62
2018-11-05T04:01:28.329Z,7.60
2018-11-05T04:02:28.326Z,7.71
2018-11-05T04:03:28.351Z,7.58
2018-11-05T04:04:28.344Z,7.63
2018-11-05T04:05:28.313Z,7.63
2018-11-05T04:06:28.304Z,7.59
2018-11-05T04:07:28.300Z,7.49
2018-11-05T04:08:28.296Z,7.59
2018-11-05T04:09:28.318Z,7.49
2018-11-05T04:10:28.288Z,7.59
2018-11-05T04:11:28.286Z,7.59
2018-11-05T04:12:28.286Z,7.62
2018-11-05T04:13:28.276Z,7.60
2018-11-05T04:14:28.300Z,7.69
2018-11-05T04:15:28.323Z,7.59
2018-11-05T04:16:28.262Z,7.60
2018-11-05T04:17:28.265Z,7.47
2018-11-05T04:18:28.281Z,7.52
2018-11-05T04:19:28.266Z,7.41
2018-11-05T04:20:28.246Z,7.41
2018-11-05T04:21:28.244Z,7.41
2018-11-05T04:22:28.237Z,7.35
2018-11-05T04:23:28.261Z,7.32
2018-11-05T04:24:28.254Z,7.26
2018-11-05T04:25:28.226Z,7.24
2018-11-05T04:26:28.219Z,7.22
2018-11-05T04:27:28.231Z,7.17
2018-11-05T04:28:28.237Z,7.12
2018-11-05T04:29:28.206Z,7.22
2018-11-05T04:30:28.201Z,7.31
2018-11-05T04:31:28.203Z,7.32
2018-11-05T04:32:28.200Z,7.23
2018-11-05T04:33:28.222Z,7.23
2018-11-05T04:34:28.189Z,7.32
2018-11-05T04:35:28.178Z,7.26
2018-11-05T04:36:28.185Z,7.24
2018-11-05T04:37:28.170Z,7.09
2018-11-05T04:38:28.195Z,6.98
2018-11-05T04:39:28.163Z,6.98
2018-11-05T04:40:28.158Z,6.83
2018-11-05T04:41:28.154Z,6.76
2018-11-05T04:42:28.151Z,6.83
2018-11-05T04:43:28.170Z,6.89
2018-11-05T04:44:28.136Z,7.01
2018-11-05T04:45:28.137Z,6.94
2018-11-05T04:46:28.133Z,7.02
2018-11-05T04:47:28.126Z,7.04
2018-11-05T04:48:28.151Z,7.08
2018-11-05T04:49:28.116Z,7.07
2018-11-05T04:50:28.131Z,7.12
2018-11-05T04:51:28.115Z,6.94
2018-11-05T04:52:28.136Z,6.95
2018-11-05T04:53:28.097Z,6.95
2018-11-05T04:54:28.099Z,6.90
2018-11-05T04:55:28.091Z,6.99
2018-11-05T04:56:28.086Z,6.98
2018-11-05T04:57:28.117Z,6.94
2018-11-05T04:58:28.072Z,6.99
2018-11-05T04:59:28.074Z,7.07
2018-11-05T05:00:28.067Z,6.98
2018-11-05T05:01:28.064Z,6.90
2018-11-05T05:02:28.088Z,6.84
2018-11-05T05:03:28.062Z,6.89
2018-11-05T05:04:29.016Z,6.94
2018-11-05T05:05:28.044Z,6.80
2018-11-05T05:06:28.044Z,6.81
2018-11-05T05:07:28.064Z,6.87
2018-11-05T05:08:28.029Z,6.90
2018-11-05T05:09:28.028Z,7.02
2018-11-05T05:10:28.020Z,7.02
2018-11-05T05:11:28.045Z,7.01
2018-11-05T05:12:28.009Z,6.95
2018-11-05T05:13:28.036Z,6.79
2018-11-05T05:14:27.999Z,6.65
2018-11-05T05:15:27.999Z,6.83
2018-11-05T05:16:27.995Z,6.77
2018-11-05T05:17:27.988Z,6.83
2018-11-05T05:18:28.012Z,6.71
2018-11-05T05:19:27.981Z,6.79
2018-11-05T05:20:27.975Z,6.72
2018-11-05T05:21:27.968Z,6.97
2018-11-05T05:22:27.975Z,6.95
2018-11-05T05:23:27.987Z,6.95
2018-11-05T05:24:28.612Z,6.95
2018-11-05T05:25:27.950Z,6.83
2018-11-05T05:26:27.947Z,6.91
2018-11-05T05:27:27.974Z,6.80
2018-11-05T05:28:27.936Z,6.89
2018-11-05T05:29:27.929Z,6.86
2018-11-05T05:30:27.946Z,6.89
2018-11-05T05:31:27.925Z,6.83
2018-11-05T05:32:27.956Z,6.77
2018-11-05T05:33:27.984Z,6.81
2018-11-05T05:34:27.907Z,6.77
2018-11-05T05:35:27.901Z,6.81
2018-11-05T05:36:27.897Z,6.83
2018-11-05T05:37:27.891Z,6.73
2018-11-05T05:38:27.915Z,6.65
2018-11-05T05:39:27.881Z,6.63
2018-11-05T05:40:27.877Z,6.68
2018-11-05T05:41:28.032Z,6.68
2018-11-05T05:42:27.869Z,6.87
2018-11-05T05:43:27.899Z,6.71
2018-11-05T05:44:27.854Z,6.89
2018-11-05T05:45:27.853Z,6.83
2018-11-05T05:46:27.849Z,6.81
2018-11-05T05:47:27.845Z,6.89
2018-11-05T05:48:27.869Z,6.84
2018-11-05T05:49:27.832Z,6.95
2018-11-05T05:50:27.829Z,7.01
2018-11-05T05:51:27.824Z,7.05
2018-11-05T05:52:27.853Z,7.12
2018-11-05T05:53:27.818Z,6.95
2018-11-05T05:54:27.815Z,6.84
2018-11-05T05:55:27.806Z,6.84
2018-11-05T05:56:27.802Z,6.71
2018-11-05T05:57:27.834Z,6.65
2018-11-05T05:58:27.794Z,6.65
2018-11-05T05:59:27.785Z,6.65
2018-11-05T06:00:27.780Z,6.59
2018-11-05T06:01:27.784Z,6.53
2018-11-05T06:02:27.805Z,6.50
2018-11-05T06:03:27.771Z,6.56
2018-11-05T06:04:27.762Z,6.50
2018-11-05T06:05:27.758Z,6.48
2018-11-05T06:06:27.787Z,6.53
2018-11-05T06:07:27.779Z,6.59
2018-11-05T06:08:27.766Z,6.61
2018-11-05T06:09:27.741Z,6.59
2018-11-05T06:10:27.738Z,6.65
2018-11-05T06:11:27.730Z,6.68
2018-11-05T06:12:27.754Z,6.72
2018-11-05T06:13:27.723Z,6.84
2018-11-05T06:14:27.714Z,6.72
2018-11-05T06:15:28.925Z,6.69
2018-11-05T06:16:27.703Z,6.71
2018-11-05T06:17:27.731Z,6.73
2018-11-05T06:18:27.696Z,6.69
2018-11-05T06:19:27.694Z,6.51
2018-11-05T06:20:27.687Z,6.65
2018-11-05T06:21:27.687Z,6.56
2018-11-05T06:22:27.708Z,6.63
2018-11-05T06:23:27.692Z,6.63
2018-11-05T06:24:27.668Z,6.46
2018-11-05T06:25:27.671Z,6.54
2018-11-05T06:26:27.662Z,6.68
2018-11-05T06:27:27.684Z,6.83
2018-11-05T06:28:27.686Z,6.97
2018-11-05T06:29:27.644Z,6.80
2018-11-05T06:30:27.640Z,6.84
2018-11-05T06:31:27.639Z,6.81
2018-11-05T06:32:27.660Z,6.83
2018-11-05T06:33:27.627Z,6.81
2018-11-05T06:34:27.619Z,6.79
2018-11-05T06:35:27.757Z,6.86
2018-11-05T06:36:27.612Z,7.01
2018-11-05T06:37:27.657Z,7.05
2018-11-05T06:38:27.600Z,7.08
2018-11-05T06:39:27.592Z,7.15
2018-11-05T06:40:27.592Z,7.37
2018-11-05T06:41:27.699Z,7.63
2018-11-05T06:42:27.612Z,7.84
2018-11-05T06:43:27.572Z,7.85
2018-11-05T06:44:27.573Z,7.85
2018-11-05T06:45:27.575Z,7.85
2018-11-05T06:46:27.565Z,7.90
2018-11-05T06:47:27.593Z,7.87
2018-11-05T06:48:27.553Z,7.75
2018-11-05T06:49:27.553Z,7.67
2018-11-05T06:50:27.541Z,7.56
2018-11-05T06:51:27.587Z,7.53
2018-11-05T06:52:27.569Z,7.41
2018-11-05T06:53:27.533Z,7.37
2018-11-05T06:54:27.529Z,7.37
2018-11-05T06:55:27.525Z,7.62
2018-11-05T06:56:27.523Z,7.82
2018-11-05T06:57:27.583Z,7.93
2018-11-05T06:58:28.023Z,7.94
2018-11-05T06:59:27.510Z,7.96
2018-11-05T07:00:27.504Z,7.97
2018-11-05T07:01:27.497Z,8.10
2018-11-05T07:02:27.568Z,8.10
2018-11-05T07:03:27.491Z,8.20
2018-11-05T07:04:27.485Z,8.17
2018-11-05T07:05:27.485Z,8.14
2018-11-05T07:06:27.478Z,7.93
2018-11-05T07:07:27.501Z,7.96
2018-11-05T07:08:27.504Z,7.96
2018-11-05T07:09:27.467Z,7.85
2018-11-05T07:10:27.462Z,7.96
2018-11-05T07:11:27.472Z,7.96
2018-11-05T07:12:27.449Z,8.08
2018-11-05T07:13:27.478Z,8.15
2018-11-05T07:14:27.445Z,8.26
2018-11-05T07:15:27.444Z,8.29
2018-11-05T07:16:27.438Z,8.40
2018-11-05T07:17:27.461Z,8.51
2018-11-05T07:18:27.556Z,8.58
2018-11-05T07:19:27.446Z,8.66
2018-11-05T07:20:27.422Z,8.75
2018-11-05T07:21:27.419Z,8.78
2018-11-05T07:22:27.419Z,9.12
2018-11-05T07:23:27.439Z,9.05
2018-11-05T07:24:27.408Z,9.27
2018-11-05T07:25:27.402Z,9.31
2018-11-05T07:26:27.425Z,9.35
2018-11-05T07:27:27.430Z,9.48
2018-11-05T07:28:27.422Z,9.50
2018-11-05T07:29:27.390Z,9.57
2018-11-05T07:30:27.387Z,9.57
2018-11-05T07:31:27.384Z,9.66
2018-11-05T07:32:27.379Z,9.85
2018-11-05T07:33:27.440Z,9.83
2018-11-05T07:34:27.436Z,9.85
2018-11-05T07:35:27.369Z,9.78
2018-11-05T07:36:27.372Z,10.06
2018-11-05T07:37:27.369Z,10.18
2018-11-05T07:38:27.455Z,10.12
2018-11-05T07:39:27.357Z,10.18
2018-11-05T07:40:27.357Z,10.25
2018-11-05T07:41:27.356Z,10.26
2018-11-05T07:42:27.351Z,10.58
2018-11-05T07:43:27.387Z,10.71
2018-11-05T07:44:27.348Z,10.91
2018-11-05T07:45:27.343Z,11.03
2018-11-05T07:46:27.337Z,11.27
2018-11-05T07:47:27.336Z,11.25
2018-11-05T07:48:27.372Z,11.28
2018-11-05T07:49:27.336Z,11.46
2018-11-05T07:50:27.456Z,11.46
2018-11-05T07:51:27.331Z,11.53
2018-11-05T07:52:27.331Z,11.77
2018-11-05T07:53:27.357Z,12.01
2018-11-05T07:54:27.324Z,12.13
2018-11-05T07:55:27.329Z,12.27
2018-11-05T07:56:27.324Z,12.26
2018-11-05T07:57:27.319Z,12.23
2018-11-05T07:58:27.345Z,12.26
2018-11-05T07:59:27.318Z,12.26
2018-11-05T08:00:27.317Z,12.27
2018-11-05T08:01:27.317Z,12.42
2018-11-05T08:02:27.314Z,12.46
2018-11-05T08:03:27.344Z,12.49
2018-11-05T08:04:27.316Z,12.52
2018-11-05T08:05:27.314Z,12.54
2018-11-05T08:06:27.314Z,12.57
2018-11-05T08:07:27.314Z,12.69
2018-11-05T08:08:27.391Z,12.69
2018-11-05T08:09:27.312Z,12.81
2018-11-05T08:10:27.312Z,12.92
2018-11-05T08:11:27.316Z,12.92
2018-11-05T08:12:27.313Z,12.69
2018-11-05T08:13:27.342Z,12.46
2018-11-05T08:14:27.411Z,12.38
2018-11-05T08:15:27.310Z,12.24
2018-11-05T08:16:27.310Z,12.26
2018-11-05T08:17:27.308Z,12.15
2018-11-05T08:18:27.341Z,12.02
2018-11-05T08:19:27.302Z,11.71
2018-11-05T08:20:27.310Z,11.86
2018-11-05T08:21:27.304Z,11.85
2018-11-05T08:22:27.310Z,11.85
2018-11-05T08:23:27.341Z,11.78
2018-11-05T08:24:27.308Z,11.89
2018-11-05T08:25:27.310Z,12.06
2018-11-05T08:26:27.309Z,12.02
2018-11-05T08:27:27.308Z,11.82
2018-11-05T08:28:27.337Z,12.01
2018-11-05T08:29:27.306Z,12.11
2018-11-05T08:30:27.312Z,12.24
2018-11-05T08:31:27.306Z,12.23
2018-11-05T08:32:27.303Z,12.08
2018-11-05T08:33:27.334Z,12.20
2018-11-05T08:34:27.465Z,12.24
2018-11-05T08:35:27.309Z,12.45
2018-11-05T08:36:27.311Z,12.57
2018-11-05T08:37:27.305Z,12.71
2018-11-05T08:38:27.466Z,12.95
2018-11-05T08:39:27.301Z,13.07
2018-11-05T08:40:27.421Z,13.38
2018-11-05T08:41:27.306Z,13.33
2018-11-05T08:42:27.302Z,13.38
2018-11-05T08:43:27.329Z,13.41
2018-11-05T08:44:27.300Z,13.80
2018-11-05T08:45:27.309Z,13.99
2018-11-05T08:46:27.305Z,13.96
2018-11-05T08:47:27.306Z,13.55
2018-11-05T08:48:27.333Z,13.14
2018-11-05T08:49:27.306Z,12.85
2018-11-05T08:50:27.361Z,12.69
2018-11-05T08:51:27.599Z,12.78
2018-11-05T08:52:27.318Z,13.00
2018-11-05T08:53:27.341Z,13.24
2018-11-05T08:54:27.314Z,13.46
2018-11-05T08:55:27.324Z,13.94
2018-11-05T08:56:27.321Z,14.46
2018-11-05T08:57:27.384Z,14.50
2018-11-05T08:58:27.356Z,14.50
2018-11-05T08:59:27.327Z,14.02
2018-11-05T09:00:27.327Z,13.94
2018-11-05T09:01:27.331Z,13.94
2018-11-05T09:02:27.336Z,13.62
2018-11-05T09:03:27.368Z,14.06
2018-11-05T09:04:27.348Z,14.09
2018-11-05T09:05:27.344Z,14.31
2018-11-05T09:06:27.340Z,14.21
2018-11-05T09:07:27.352Z,13.88
2018-11-05T09:08:27.379Z,13.73
2018-11-05T09:09:28.905Z,13.67
2018-11-05T09:10:27.524Z,13.84
2018-11-05T09:11:27.698Z,13.83
2018-11-05T09:12:27.439Z,13.58
2018-11-05T09:13:27.627Z,13.70
2018-11-05T09:14:27.364Z,13.61
2018-11-05T09:15:27.373Z,13.59
2018-11-05T09:16:29.409Z,13.65
2018-11-05T09:17:27.368Z,13.84
2018-11-05T09:18:27.748Z,13.94
2018-11-05T09:19:28.036Z,13.95
2018-11-05T09:20:31.121Z,14.01
2018-11-05T09:21:27.376Z,14.04
2018-11-05T09:22:27.376Z,14.34
2018-11-05T09:23:27.400Z,14.31
2018-11-05T09:24:28.978Z,14.47
2018-11-05T09:25:31.407Z,14.42
2018-11-05T09:26:27.380Z,14.31
2018-11-05T09:27:27.666Z,14.17
2018-11-05T09:28:28.056Z,14.09
2018-11-05T09:29:27.392Z,13.99
2018-11-05T09:30:27.404Z,14.06
2018-11-05T09:31:27.402Z,14.13
2018-11-05T09:32:27.393Z,14.25
2018-11-05T09:33:27.422Z,14.42
2018-11-05T09:34:27.498Z,14.44
2018-11-05T09:35:29.155Z,14.67
2018-11-05T09:36:27.398Z,14.80
2018-11-05T09:37:27.402Z,14.95
2018-11-05T09:38:27.427Z,14.94
2018-11-05T09:39:27.412Z,15.24
2018-11-05T09:40:27.402Z,15.93
2018-11-05T09:41:27.410Z,15.92
2018-11-05T09:42:27.411Z,15.81
2018-11-05T09:43:27.436Z,15.13
2018-11-05T09:44:27.415Z,14.98
2018-11-05T09:45:27.417Z,15.31
2018-11-05T09:46:27.418Z,15.61
2018-11-05T09:47:27.424Z,16.41
2018-11-05T09:48:27.450Z,16.86
2018-11-05T09:49:27.452Z,17.55
2018-11-05T09:50:27.439Z,17.59
2018-11-05T09:51:27.434Z,17.13
2018-11-05T09:52:27.445Z,17.64
2018-11-05T09:53:27.476Z,17.43
2018-11-05T09:54:27.451Z,17.69
2018-11-05T09:55:27.476Z,17.32
2018-11-05T09:56:27.461Z,16.83
2018-11-05T09:57:27.471Z,17.04
2018-11-05T09:58:27.507Z,17.14
2018-11-05T09:59:27.487Z,17.33
2018-11-05T10:00:27.495Z,17.47
2018-11-05T10:01:27.503Z,17.17
2018-11-05T10:02:27.511Z,16.95
2018-11-05T10:03:27.813Z,16.59
2018-11-05T10:04:27.674Z,16.38
2018-11-05T10:05:27.579Z,16.56
2018-11-05T10:06:27.568Z,17.07
2018-11-05T10:07:27.552Z,17.59
2018-11-05T10:08:27.592Z,18.31
2018-11-05T10:09:27.605Z,17.81
2018-11-05T10:10:27.639Z,17.03
2018-11-05T10:11:27.581Z,16.56
2018-11-05T10:12:27.595Z,16.50
2018-11-05T10:13:27.632Z,17.00
2018-11-05T10:14:27.612Z,17.28
2018-11-05T10:15:27.619Z,17.64
2018-11-05T10:16:27.639Z,17.67
2018-11-05T10:17:27.636Z,17.28
2018-11-05T10:18:27.675Z,16.90
2018-11-05T10:19:27.655Z,16.55
2018-11-05T10:20:27.663Z,16.00
2018-11-05T10:21:27.671Z,15.59
2018-11-05T10:22:27.677Z,15.63
2018-11-05T10:23:27.716Z,15.43
2018-11-05T10:24:27.767Z,15.31
2018-11-05T10:25:27.701Z,15.46
2018-11-05T10:26:27.713Z,15.67
2018-11-05T10:27:27.724Z,15.72
2018-11-05T10:28:27.756Z,15.74
2018-11-05T10:29:27.733Z,15.68
2018-11-05T10:30:27.741Z,15.63
2018-11-05T10:31:27.784Z,15.63
2018-11-05T10:32:27.750Z,15.39
2018-11-05T10:33:27.823Z,15.31
2018-11-05T10:34:27.760Z,15.43
2018-11-05T10:35:27.765Z,15.52
2018-11-05T10:36:27.773Z,15.46
2018-11-05T10:37:27.781Z,15.56
2018-11-05T10:38:27.823Z,15.49
2018-11-05T10:39:27.786Z,15.63
2018-11-05T10:40:27.850Z,15.63
2018-11-05T10:41:27.795Z,15.63
2018-11-05T10:42:27.798Z,15.72
2018-11-05T10:43:27.837Z,15.72
2018-11-05T10:44:27.833Z,15.86
2018-11-05T10:45:27.814Z,15.93
2018-11-05T10:46:27.816Z,16.34
2018-11-05T10:47:27.817Z,16.50
2018-11-05T10:48:27.827Z,16.56
2018-11-05T10:49:27.858Z,16.45
2018-11-05T10:50:27.873Z,16.41
2018-11-05T10:51:27.937Z,16.03
2018-11-05T10:52:27.879Z,15.96
2018-11-05T10:53:27.878Z,15.92
2018-11-05T10:54:27.850Z,15.70
2018-11-05T10:55:27.854Z,15.92
2018-11-05T10:56:27.859Z,16.20
2018-11-05T10:57:27.866Z,16.55
2018-11-05T10:58:27.900Z,16.50
2018-11-05T10:59:27.876Z,16.74
2018-11-05T11:00:27.889Z,16.95
2018-11-05T11:01:27.882Z,17.20
2018-11-05T11:02:27.886Z,16.96
2018-11-05T11:03:27.951Z,16.92
2018-11-05T11:04:27.948Z,17.03
2018-11-05T11:05:27.903Z,17.47
2018-11-05T11:06:27.907Z,17.26
2018-11-05T11:07:27.916Z,16.92
2018-11-05T11:08:27.948Z,17.25
2018-11-05T11:09:27.931Z,17.13
2018-11-05T11:10:27.927Z,17.22
2018-11-05T11:11:27.938Z,17.62
2018-11-05T11:12:27.939Z,18.00
2018-11-05T11:13:27.971Z,18.19
2018-11-05T11:14:27.950Z,17.79
2018-11-05T11:15:27.957Z,17.59
2018-11-05T11:16:27.964Z,17.17
2018-11-05T11:17:27.972Z,16.96
2018-11-05T11:18:28.018Z,17.32
2018-11-05T11:19:27.991Z,17.30
2018-11-05T11:20:27.988Z,16.81
2018-11-05T11:21:27.996Z,16.96
2018-11-05T11:22:28.001Z,17.25
2018-11-05T11:23:28.053Z,16.90
2018-11-05T11:24:28.013Z,16.77
2018-11-05T11:25:28.014Z,16.58
2018-11-05T11:26:28.018Z,16.73
2018-11-05T11:27:28.082Z,16.49
2018-11-05T11:28:28.196Z,16.65
2018-11-05T11:29:28.150Z,16.88
2018-11-05T11:30:28.046Z,17.14
2018-11-05T11:31:28.054Z,16.90
2018-11-05T11:32:28.044Z,16.89
2018-11-05T11:33:28.087Z,16.92
2018-11-05T11:34:28.065Z,17.15
2018-11-05T11:35:28.071Z,17.35
2018-11-05T11:36:28.086Z,17.64
2018-11-05T11:37:28.078Z,18.06
2018-11-05T11:38:28.115Z,17.95
2018-11-05T11:39:28.090Z,18.12
2018-11-05T11:40:28.094Z,17.33
2018-11-05T11:41:28.101Z,17.26
2018-11-05T11:42:28.107Z,17.44
2018-11-05T11:43:28.142Z,17.35
2018-11-05T11:44:28.118Z,17.07
2018-11-05T11:45:28.122Z,16.99
2018-11-05T11:46:28.126Z,17.08
2018-11-05T11:47:28.133Z,17.17
2018-11-05T11:48:28.174Z,17.14
2018-11-05T11:49:28.146Z,17.13
2018-11-05T11:50:28.151Z,17.08
2018-11-05T11:51:28.158Z,17.06
2018-11-05T11:52:28.236Z,16.86
2018-11-05T11:53:28.228Z,16.67
2018-11-05T11:54:28.180Z,16.85
2018-11-05T11:55:28.183Z,16.92
2018-11-05T11:56:28.186Z,16.95
2018-11-05T11:57:28.194Z,16.92
2018-11-05T11:58:28.282Z,16.95
2018-11-05T11:59:28.209Z,16.58
2018-11-05T12:00:28.230Z,16.68
2018-11-05T12:01:28.270Z,16.92
2018-11-05T12:02:28.257Z,17.08
2018-11-05T12:03:28.256Z,17.13
2018-11-05T12:04:28.296Z,16.88
2018-11-05T12:05:28.397Z,16.93
2018-11-05T12:06:28.278Z,16.96
2018-11-05T12:07:28.261Z,17.41
2018-11-05T12:08:28.297Z,17.50
2018-11-05T12:09:28.275Z,17.28
2018-11-05T12:10:28.280Z,17.62
2018-11-05T12:11:28.281Z,18.07
2018-11-05T12:12:28.291Z,18.22
2018-11-05T12:13:28.332Z,18.17
2018-11-05T12:14:28.353Z,17.46
2018-11-05T12:15:28.315Z,17.44
2018-11-05T12:16:28.321Z,17.85
2018-11-05T12:17:28.328Z,17.97
2018-11-05T12:18:28.365Z,17.82
2018-11-05T12:19:28.340Z,17.67
2018-11-05T12:20:28.386Z,17.84
2018-11-05T12:21:28.356Z,18.07
2018-11-05T12:22:28.364Z,18.42
2018-11-05T12:23:28.444Z,18.34
2018-11-05T12:24:28.442Z,18.34
2018-11-05T12:25:28.393Z,18.04
2018-11-05T12:26:28.396Z,18.02
2018-11-05T12:27:28.408Z,18.15
2018-11-05T12:28:28.461Z,17.97
2018-11-05T12:29:28.422Z,17.55
2018-11-05T12:30:28.425Z,17.28
2018-11-05T12:31:28.433Z,17.29
2018-11-05T12:32:28.474Z,16.95
2018-11-05T12:33:28.449Z,16.80
2018-11-05T12:34:28.455Z,16.88
2018-11-05T12:35:28.462Z,16.92
2018-11-05T12:36:28.468Z,16.89
2018-11-05T12:37:28.500Z,16.74
2018-11-05T12:38:28.485Z,16.73
2018-11-05T12:39:28.487Z,16.93
2018-11-05T12:40:28.494Z,17.20
2018-11-05T12:41:28.498Z,17.07
2018-11-05T12:42:28.538Z,16.90
2018-11-05T12:43:28.510Z,16.98
2018-11-05T12:44:28.551Z,16.95
2018-11-05T12:45:28.523Z,17.18
2018-11-05T12:46:28.526Z,16.96
2018-11-05T12:47:28.562Z,16.90
2018-11-05T12:48:29.097Z,16.90
2018-11-05T12:49:28.550Z,16.78
2018-11-05T12:50:28.566Z,16.90
2018-11-05T12:51:28.554Z,16.85
2018-11-05T12:52:28.594Z,16.88
2018-11-05T12:53:28.571Z,16.85
2018-11-05T12:54:28.575Z,16.73
2018-11-05T12:55:28.616Z,16.49
2018-11-05T12:56:28.602Z,16.52
2018-11-05T12:57:28.620Z,16.48
2018-11-05T12:58:28.653Z,16.50
2018-11-05T12:59:28.604Z,16.33
2018-11-05T13:00:28.607Z,16.23
2018-11-05T13:01:28.614Z,16.25
2018-11-05T13:02:28.614Z,16.34
2018-11-05T13:03:28.644Z,16.30
2018-11-05T13:04:28.629Z,16.31
2018-11-05T13:05:28.628Z,16.35